createdAt,value
2022-08-29T00:01:35.572Z,24.76
2022-08-29T00:04:04.901Z,24.66
2022-08-29T00:06:34.274Z,24.80
2022-08-29T00:09:02.353Z,24.77
2022-08-29T00:11:29.965Z,24.54
2022-08-29T00:13:58.084Z,24.28
2022-08-29T00:16:25.747Z,24.29
2022-08-29T00:18:56.231Z,24.45
2022-08-29T00:21:24.478Z,24.30
2022-08-29T00:23:52.484Z,24.44
2022-08-29T00:26:20.294Z,24.10
2022-08-29T00:28:47.999Z,24.21
2022-08-29T00:31:16.331Z,24.37
2022-08-29T00:33:45.262Z,24.45
2022-08-29T00:36:13.121Z,24.46
2022-08-29T00:38:41.806Z,24.52
2022-08-29T00:41:10.195Z,24.57
2022-08-29T00:43:38.436Z,24.53
2022-08-29T00:46:11.727Z,24.51
2022-08-29T00:48:41.150Z,24.49
2022-08-29T00:51:16.013Z,24.39
2022-08-29T00:53:47.894Z,24.14
2022-08-29T00:56:17.574Z,24.27
2022-08-29T00:58:53.451Z,24.29
2022-08-29T01:01:23.495Z,24.10
2022-08-29T01:03:52.327Z,24.05
2022-08-29T01:06:21.715Z,24.04
2022-08-29T01:08:49.504Z,24.05
2022-08-29T01:11:48.425Z,24.06
2022-08-29T01:14:18.208Z,24.03
2022-08-29T01:16:48.137Z,24.14
2022-08-29T01:19:47.606Z,24.10
2022-08-29T01:22:42.921Z,23.99
2022-08-29T01:25:22.697Z,23.99
2022-08-29T01:28:03.321Z,24.08
2022-08-29T01:30:31.392Z,24.10
2022-08-29T01:33:00.914Z,24.11
2022-08-29T01:35:29.681Z,24.02
2022-08-29T01:37:57.615Z,24.03
2022-08-29T01:40:29.301Z,23.97
2022-08-29T01:42:57.656Z,24.14
2022-08-29T01:45:25.312Z,23.91
2022-08-29T01:47:52.873Z,23.52
2022-08-29T01:50:20.552Z,23.53
2022-08-29T01:52:48.114Z,23.46
2022-08-29T01:55:15.886Z,23.52
2022-08-29T01:57:43.897Z,23.50
2022-08-29T02:00:12.867Z,23.60
2022-08-29T02:02:43.389Z,23.62
2022-08-29T02:05:11.001Z,23.36
2022-08-29T02:07:39.071Z,23.31
2022-08-29T02:10:08.152Z,23.43
2022-08-29T02:12:36.568Z,23.48
2022-08-29T02:15:06.159Z,23.58
2022-08-29T02:17:33.698Z,23.56
2022-08-29T02:20:03.051Z,23.54
2022-08-29T02:22:31.248Z,23.48
2022-08-29T02:25:01.505Z,23.48
2022-08-29T02:27:31.741Z,23.53
2022-08-29T02:29:59.665Z,23.61
2022-08-29T02:32:27.171Z,23.68
2022-08-29T02:34:54.785Z,23.82
2022-08-29T02:37:22.298Z,23.83
2022-08-29T02:39:50.255Z,23.77
2022-08-29T02:42:17.842Z,23.79
2022-08-29T02:44:45.359Z,23.71
2022-08-29T02:47:14.345Z,23.65
2022-08-29T02:49:42.479Z,23.63
2022-08-29T02:52:10.672Z,23.64
2022-08-29T02:54:38.741Z,23.71
2022-08-29T02:57:06.796Z,23.76
2022-08-29T02:59:34.684Z,23.66
2022-08-29T03:02:02.708Z,23.63
2022-08-29T03:04:31.055Z,23.53
2022-08-29T03:06:59.569Z,23.48
2022-08-29T03:09:27.077Z,23.45
2022-08-29T03:11:56.525Z,23.41
2022-08-29T03:14:25.476Z,23.22
2022-08-29T03:16:53.568Z,23.21
2022-08-29T03:19:21.150Z,23.21
2022-08-29T03:21:49.129Z,23.14
2022-08-29T03:24:16.724Z,23.01
2022-08-29T03:26:56.339Z,22.95
2022-08-29T03:29:25.660Z,22.95
2022-08-29T03:31:58.648Z,22.80
2022-08-29T03:34:28.432Z,22.69
2022-08-29T03:36:56.056Z,22.67
2022-08-29T03:39:24.277Z,22.73
2022-08-29T03:41:52.645Z,22.63
2022-08-29T03:44:20.215Z,22.58
2022-08-29T03:46:47.859Z,22.56
2022-08-29T03:49:16.221Z,22.44
2022-08-29T03:51:44.131Z,22.32
2022-08-29T03:54:12.071Z,22.36
2022-08-29T03:56:39.917Z,22.53
2022-08-29T03:59:08.948Z,22.56
2022-08-29T04:01:36.608Z,22.54
2022-08-29T04:04:05.307Z,22.55
2022-08-29T04:06:36.591Z,22.53
2022-08-29T04:09:04.235Z,22.37
2022-08-29T04:11:32.179Z,22.15
2022-08-29T04:14:00.330Z,22.21
2022-08-29T04:16:30.748Z,21.98
2022-08-29T04:18:59.963Z,21.80
2022-08-29T04:21:28.361Z,21.73
2022-08-29T04:23:56.562Z,21.70
2022-08-29T04:26:41.003Z,21.64
2022-08-29T04:29:12.009Z,21.76
2022-08-29T04:31:41.800Z,21.80
2022-08-29T04:34:13.395Z,21.94
2022-08-29T04:36:45.373Z,22.02
2022-08-29T04:39:14.338Z,22.17
2022-08-29T04:41:43.418Z,22.32
2022-08-29T04:44:13.219Z,22.42
2022-08-29T04:46:41.433Z,22.45
2022-08-29T04:49:09.874Z,22.50
2022-08-29T04:51:38.006Z,22.40
2022-08-29T04:54:06.904Z,22.31
2022-08-29T04:56:37.567Z,22.32
2022-08-29T04:59:05.943Z,22.39
2022-08-29T05:01:34.943Z,22.47
2022-08-29T05:04:02.885Z,22.57
2022-08-29T05:06:30.468Z,22.54
2022-08-29T05:08:59.885Z,22.50
2022-08-29T05:11:30.362Z,22.59
2022-08-29T05:13:59.749Z,22.68
2022-08-29T05:16:27.878Z,22.67
2022-08-29T05:18:56.628Z,22.66
2022-08-29T05:21:35.047Z,22.77
2022-08-29T05:24:07.170Z,22.69
2022-08-29T05:26:39.199Z,23.02
2022-08-29T05:29:08.982Z,23.20
2022-08-29T05:31:38.665Z,23.44
2022-08-29T05:34:14.036Z,23.54
2022-08-29T05:36:54.736Z,23.64
2022-08-29T05:39:22.283Z,23.60
2022-08-29T05:41:50.288Z,23.76
2022-08-29T05:44:17.809Z,23.92
2022-08-29T05:46:45.927Z,24.07
2022-08-29T05:49:13.527Z,24.30
2022-08-29T05:51:42.466Z,24.04
2022-08-29T05:54:10.542Z,24.13
2022-08-29T05:56:38.469Z,24.31
2022-08-29T05:59:06.034Z,24.56
2022-08-29T06:01:34.617Z,24.70
2022-08-29T06:04:02.783Z,24.76
2022-08-29T06:06:30.571Z,24.63
2022-08-29T06:08:59.465Z,24.75
2022-08-29T06:11:31.753Z,24.87
2022-08-29T06:14:00.568Z,25.02
2022-08-29T06:16:29.845Z,25.20
2022-08-29T06:18:57.876Z,25.28
2022-08-29T06:21:25.486Z,25.30
2022-08-29T06:23:53.440Z,25.45
2022-08-29T06:26:21.813Z,25.67
2022-08-29T06:28:49.745Z,25.75
2022-08-29T06:31:24.934Z,25.81
2022-08-29T06:33:55.311Z,25.67
2022-08-29T06:36:25.598Z,25.61
2022-08-29T06:38:56.472Z,25.79
2022-08-29T06:41:25.155Z,25.98
2022-08-29T06:43:55.275Z,26.22
2022-08-29T06:46:26.175Z,26.15
2022-08-29T06:48:55.337Z,26.41
2022-08-29T06:51:24.350Z,26.51
2022-08-29T06:53:52.132Z,26.53
2022-08-29T06:56:20.480Z,26.45
2022-08-29T06:58:48.073Z,26.56
2022-08-29T07:01:18.554Z,26.87
2022-08-29T07:03:47.167Z,27.04
2022-08-29T07:06:17.813Z,27.15
2022-08-29T07:08:54.952Z,27.30
2022-08-29T07:11:24.936Z,27.34
2022-08-29T07:13:53.052Z,27.30
2022-08-29T07:16:20.854Z,27.35
2022-08-29T07:18:51.334Z,27.30
2022-08-29T07:21:21.981Z,27.47
2022-08-29T07:23:51.093Z,27.59
2022-08-29T07:26:23.315Z,27.72
2022-08-29T07:28:53.834Z,27.69
2022-08-29T07:31:21.470Z,27.92
2022-08-29T07:34:01.767Z,27.89
2022-08-29T07:36:34.364Z,27.80
2022-08-29T07:39:05.576Z,27.92
2022-08-29T07:41:33.374Z,27.89
2022-08-29T07:44:00.956Z,28.16
2022-08-29T07:46:29.199Z,28.30
2022-08-29T07:48:58.894Z,28.37
2022-08-29T07:51:27.796Z,28.25
2022-08-29T07:53:56.436Z,28.14
2022-08-29T07:56:33.442Z,28.04
2022-08-29T07:59:05.510Z,28.03
2022-08-29T08:01:35.838Z,28.09
2022-08-29T08:04:04.723Z,28.00
2022-08-29T08:06:34.566Z,27.96
2022-08-29T08:09:06.037Z,28.06
2022-08-29T08:11:33.697Z,28.20
2022-08-29T08:14:02.370Z,28.12
2022-08-29T08:16:31.699Z,28.08
2022-08-29T08:18:59.416Z,28.36
2022-08-29T08:21:27.504Z,28.10
2022-08-29T08:23:55.053Z,28.21
2022-08-29T08:26:23.008Z,28.49
2022-08-29T08:28:50.766Z,28.45
2022-08-29T08:31:19.984Z,28.49
2022-08-29T08:33:47.772Z,28.61
2022-08-29T08:36:30.035Z,28.51
2022-08-29T08:39:00.253Z,28.63
2022-08-29T08:41:52.422Z,28.52
2022-08-29T08:44:24.879Z,28.44
2022-08-29T08:46:59.571Z,28.59
2022-08-29T08:49:43.317Z,29.21
2022-08-29T08:52:32.950Z,29.02
2022-08-29T08:55:15.154Z,28.83
2022-08-29T08:57:51.368Z,28.90
2022-08-29T09:00:19.740Z,29.01
2022-08-29T09:03:09.240Z,29.24
2022-08-29T09:06:19.093Z,29.15
2022-08-29T09:08:56.613Z,29.42
2022-08-29T09:11:24.087Z,29.84
2022-08-29T09:13:52.073Z,30.08
2022-08-29T09:16:29.323Z,30.00
2022-08-29T09:19:01.337Z,29.94
2022-08-29T09:21:44.913Z,30.21
2022-08-29T09:24:39.339Z,30.42
2022-08-29T09:27:09.090Z,30.56
2022-08-29T09:29:37.352Z,31.11
2022-08-29T09:32:16.575Z,30.87
2022-08-29T09:35:08.062Z,30.82
2022-08-29T09:37:36.355Z,31.48
2022-08-29T09:40:17.664Z,32.16
2022-08-29T09:42:59.917Z,32.79
2022-08-29T09:45:28.549Z,33.29
2022-08-29T09:48:22.648Z,33.85
2022-08-29T09:50:50.624Z,33.67
2022-08-29T09:53:24.686Z,34.28
2022-08-29T09:55:53.237Z,34.70
2022-08-29T09:58:21.109Z,35.48
2022-08-29T10:01:19.411Z,36.57
2022-08-29T10:04:00.180Z,36.93
2022-08-29T10:06:34.520Z,37.09
2022-08-29T10:09:26.556Z,37.14
2022-08-29T10:12:08.740Z,37.50
2022-08-29T10:14:41.180Z,37.39
2022-08-29T10:17:46.276Z,37.70
2022-08-29T10:20:15.168Z,37.54
2022-08-29T10:23:00.970Z,38.01
2022-08-29T10:25:37.766Z,38.73
2022-08-29T10:28:29.711Z,37.99
2022-08-29T10:31:20.931Z,37.56
2022-08-29T10:34:03.656Z,36.32
2022-08-29T10:36:39.126Z,37.25
2022-08-29T10:39:38.380Z,37.95
2022-08-29T10:42:11.519Z,38.77
2022-08-29T10:45:03.949Z,39.09
2022-08-29T10:47:52.145Z,38.11
2022-08-29T10:50:46.571Z,39.59
2022-08-29T10:53:20.468Z,39.65
2022-08-29T10:56:05.909Z,39.65
2022-08-29T10:58:54.848Z,40.24
2022-08-29T11:01:37.490Z,39.83
2022-08-29T11:04:17.211Z,39.97
2022-08-29T11:07:02.104Z,39.94
2022-08-29T11:09:40.387Z,38.75
2022-08-29T11:12:17.241Z,36.68
2022-08-29T11:15:00.923Z,35.92
2022-08-29T11:17:37.248Z,34.83
2022-08-29T11:20:11.707Z,34.33
2022-08-29T11:22:47.491Z,36.61
2022-08-29T11:25:18.569Z,36.21
2022-08-29T11:28:07.216Z,37.54
2022-08-29T11:30:59.236Z,38.30
2022-08-29T11:33:41.415Z,38.30
2022-08-29T11:36:12.242Z,38.36
2022-08-29T11:39:00.797Z,39.11
2022-08-29T11:41:51.630Z,38.94
2022-08-29T11:44:41.049Z,39.66
2022-08-29T11:47:30.770Z,40.42
2022-08-29T11:50:17.848Z,41.71
2022-08-29T11:53:09.373Z,41.68
2022-08-29T11:55:43.046Z,39.40
2022-08-29T11:58:16.353Z,40.48
2022-08-29T12:00:52.722Z,40.89
2022-08-29T12:03:37.186Z,40.38
2022-08-29T12:06:29.996Z,40.54
2022-08-29T12:09:13.817Z,40.75
2022-08-29T12:12:21.808Z,41.06
2022-08-29T12:14:53.154Z,41.18
2022-08-29T12:17:40.053Z,41.88
2022-08-29T12:20:32.084Z,42.00
2022-08-29T12:23:18.122Z,41.22
2022-08-29T12:29:02.098Z,40.66
2022-08-29T12:32:18.241Z,41.21
2022-08-29T12:34:52.546Z,41.14
2022-08-29T12:37:54.144Z,41.88
2022-08-29T12:40:38.629Z,41.28
2022-08-29T12:43:30.574Z,42.39
2022-08-29T12:45:58.740Z,41.24
2022-08-29T12:48:33.462Z,41.96
2022-08-29T12:51:02.391Z,41.94
2022-08-29T12:53:36.881Z,41.08
2022-08-29T12:56:17.166Z,41.78
2022-08-29T12:58:54.354Z,41.54
2022-08-29T13:01:25.068Z,40.99
2022-08-29T13:03:59.582Z,41.48
2022-08-29T13:06:28.620Z,41.82
2022-08-29T13:08:57.748Z,42.20
2022-08-29T13:11:30.427Z,43.04
2022-08-29T13:14:07.971Z,44.15
2022-08-29T13:16:36.009Z,45.06
2022-08-29T13:19:12.007Z,45.32
2022-08-29T13:21:40.547Z,46.32
2022-08-29T13:24:17.999Z,44.79
2022-08-29T13:27:04.522Z,45.22
2022-08-29T13:29:39.913Z,44.53
2022-08-29T13:32:14.506Z,45.41
2022-08-29T13:35:16.864Z,46.11
2022-08-29T13:37:46.936Z,46.75
2022-08-29T13:40:33.611Z,46.36
2022-08-29T13:43:01.600Z,47.26
2022-08-29T13:45:29.269Z,47.81
2022-08-29T13:48:02.614Z,47.43
2022-08-29T13:50:32.031Z,46.34
2022-08-29T13:52:59.821Z,47.14
2022-08-29T13:55:29.292Z,46.99
2022-08-29T13:57:57.424Z,45.32
2022-08-29T14:00:32.179Z,45.62
2022-08-29T14:03:06.501Z,45.43
2022-08-29T14:05:35.649Z,46.12
2022-08-29T14:08:04.478Z,44.21
2022-08-29T14:10:33.234Z,45.73
2022-08-29T14:13:01.031Z,48.03
2022-08-29T14:15:28.597Z,47.74
2022-08-29T14:17:56.643Z,46.63
2022-08-29T14:20:24.793Z,46.29
2022-08-29T14:22:52.541Z,45.58
2022-08-29T14:25:20.375Z,46.24
2022-08-29T14:27:49.210Z,46.57
2022-08-29T14:30:20.161Z,47.02
2022-08-29T14:32:47.940Z,47.55
2022-08-29T14:35:26.072Z,47.92
2022-08-29T14:37:57.007Z,48.22
2022-08-29T14:40:25.631Z,48.10
2022-08-29T14:42:53.852Z,47.80
2022-08-29T14:45:21.771Z,48.15
2022-08-29T14:47:49.750Z,47.81
2022-08-29T14:50:17.447Z,47.89
2022-08-29T14:52:45.756Z,47.36
2022-08-29T14:55:15.373Z,46.98
2022-08-29T14:57:43.653Z,47.04
2022-08-29T15:00:15.516Z,47.32
2022-08-29T15:02:43.919Z,46.91
2022-08-29T15:05:12.531Z,47.98
2022-08-29T15:07:41.370Z,47.65
2022-08-29T15:10:10.785Z,48.12
2022-08-29T15:12:38.862Z,46.94
2022-08-29T15:15:07.687Z,47.21
2022-08-29T15:17:35.556Z,46.14
2022-08-29T15:22:54.789Z,44.64
2022-08-29T15:25:24.090Z,45.99
2022-08-29T15:27:51.659Z,44.45
2022-08-29T15:30:23.850Z,43.83
2022-08-29T15:32:52.545Z,45.26
2022-08-29T15:35:20.757Z,44.50
2022-08-29T15:37:49.284Z,44.89
2022-08-29T15:40:17.405Z,45.30
2022-08-29T15:42:45.321Z,45.02
2022-08-29T15:45:13.521Z,44.52
2022-08-29T15:47:46.044Z,44.84
2022-08-29T15:50:15.379Z,43.37
2022-08-29T15:52:43.598Z,44.01
2022-08-29T15:55:12.794Z,44.53
2022-08-29T15:57:51.943Z,45.29
2022-08-29T16:00:29.695Z,45.24
2022-08-29T16:03:01.841Z,45.77
2022-08-29T16:05:30.124Z,44.68
2022-08-29T16:07:58.342Z,45.40
2022-08-29T16:10:26.395Z,44.60
2022-08-29T16:12:54.269Z,43.40
2022-08-29T16:15:22.252Z,43.64
2022-08-29T16:17:50.306Z,42.74
2022-08-29T16:20:18.843Z,42.59
2022-08-29T16:22:46.768Z,43.01
2022-08-29T16:25:15.056Z,43.28
2022-08-29T16:27:43.129Z,43.79
2022-08-29T16:30:11.608Z,43.94
2022-08-29T16:32:39.570Z,43.38
2022-08-29T16:35:09.184Z,42.51
2022-08-29T16:37:37.672Z,41.26
2022-08-29T16:40:07.949Z,39.53
2022-08-29T16:42:38.526Z,39.68
2022-08-29T16:45:10.490Z,38.69
2022-08-29T16:47:38.699Z,38.00
2022-08-29T16:50:07.381Z,37.23
2022-08-29T16:52:35.392Z,36.65
2022-08-29T16:55:04.743Z,35.89
2022-08-29T16:57:32.612Z,34.94
2022-08-29T17:00:00.763Z,34.85
2022-08-29T17:02:29.109Z,34.58
2022-08-29T17:04:57.445Z,34.02
2022-08-29T17:07:34.544Z,33.87
2022-08-29T17:10:04.074Z,33.37
2022-08-29T17:12:32.003Z,32.79
2022-08-29T17:14:59.454Z,32.59
2022-08-29T17:17:27.046Z,32.49
2022-08-29T17:19:55.411Z,32.35
2022-08-29T17:22:23.406Z,32.20
2022-08-29T17:24:50.924Z,32.27
2022-08-29T17:27:21.682Z,32.16
2022-08-29T17:29:50.975Z,32.08
2022-08-29T17:32:18.563Z,31.84
2022-08-29T17:34:48.034Z,31.68
2022-08-29T17:37:15.687Z,31.77
2022-08-29T17:39:43.235Z,31.67
2022-08-29T17:42:11.825Z,31.63
2022-08-29T17:44:42.344Z,31.56
2022-08-29T17:47:09.906Z,31.29
2022-08-29T17:49:37.458Z,31.19
2022-08-29T17:52:05.219Z,31.21
2022-08-29T17:54:32.756Z,31.27
2022-08-29T17:57:01.703Z,31.23
2022-08-29T17:59:33.996Z,31.20
2022-08-29T18:02:02.614Z,31.21
2022-08-29T18:04:30.188Z,31.21
2022-08-29T18:06:58.694Z,31.22
2022-08-29T18:09:27.886Z,31.13
2022-08-29T18:11:58.334Z,31.12
2022-08-29T18:14:26.795Z,31.09
2022-08-29T18:16:55.526Z,31.13
2022-08-29T18:19:23.841Z,30.93
2022-08-29T18:21:53.086Z,30.89
2022-08-29T18:24:21.179Z,30.86
2022-08-29T18:26:49.378Z,30.41
2022-08-29T18:29:17.673Z,30.19
2022-08-29T18:31:45.864Z,30.03
2022-08-29T18:34:15.227Z,30.00
2022-08-29T18:36:44.859Z,30.07
2022-08-29T18:39:14.301Z,30.31
2022-08-29T18:41:42.358Z,30.35
2022-08-29T18:44:10.263Z,30.34
2022-08-29T18:46:41.619Z,30.25
2022-08-29T18:49:16.606Z,30.33
2022-08-29T18:51:44.212Z,30.03
2022-08-29T18:54:15.150Z,29.91
2022-08-29T18:56:44.917Z,29.63
2022-08-29T18:59:12.720Z,29.53
2022-08-29T19:01:42.737Z,29.44
2022-08-29T19:04:11.401Z,29.21
2022-08-29T19:06:39.429Z,29.26
2022-08-29T19:09:07.029Z,29.22
2022-08-29T19:11:36.025Z,29.04
2022-08-29T19:14:04.355Z,28.86
2022-08-29T19:16:33.661Z,28.88
2022-08-29T19:19:01.789Z,28.68
2022-08-29T19:21:29.363Z,28.66
2022-08-29T19:23:56.932Z,28.65
2022-08-29T19:26:34.556Z,28.71
2022-08-29T19:29:09.383Z,28.64
2022-08-29T19:31:37.405Z,28.71
2022-08-29T19:34:05.078Z,28.68
2022-08-29T19:36:33.615Z,28.78
2022-08-29T19:39:01.727Z,28.59
2022-08-29T19:41:29.404Z,28.44
2022-08-29T19:44:00.758Z,28.38
2022-08-29T19:46:28.961Z,28.26
2022-08-29T19:48:56.811Z,28.18
2022-08-29T19:51:25.610Z,28.12
2022-08-29T19:53:59.160Z,28.10
2022-08-29T19:56:29.186Z,28.12
2022-08-29T19:58:57.956Z,28.18
2022-08-29T20:01:26.736Z,28.19
2022-08-29T20:03:54.539Z,28.17
2022-08-29T20:06:23.313Z,28.20
2022-08-29T20:08:51.140Z,28.25
2022-08-29T20:11:24.053Z,28.27
2022-08-29T20:13:53.913Z,28.17
2022-08-29T20:16:27.391Z,28.05
2022-08-29T20:18:54.975Z,27.96
2022-08-29T20:21:23.755Z,27.95
2022-08-29T20:23:57.278Z,28.11
2022-08-29T20:26:30.277Z,27.93
2022-08-29T20:29:00.286Z,27.89
2022-08-29T20:31:29.004Z,27.73
2022-08-29T20:33:56.602Z,27.69
2022-08-29T20:36:44.004Z,27.78
2022-08-29T20:39:14.702Z,27.87
2022-08-29T20:41:48.277Z,27.96
2022-08-29T20:44:18.429Z,28.00
2022-08-29T20:46:47.254Z,27.71
2022-08-29T20:49:18.246Z,27.35
2022-08-29T20:51:46.882Z,27.30
2022-08-29T20:54:17.450Z,27.10
2022-08-29T20:56:45.718Z,27.10
2022-08-29T20:59:13.270Z,27.06
2022-08-29T21:01:41.729Z,26.97
2022-08-29T21:04:29.972Z,26.97
2022-08-29T21:07:03.994Z,27.02
2022-08-29T21:09:32.529Z,27.17
2022-08-29T21:12:00.660Z,27.07
2022-08-29T21:14:29.055Z,26.93
2022-08-29T21:16:58.030Z,26.99
2022-08-29T21:19:29.939Z,27.04
2022-08-29T21:21:59.720Z,26.92
2022-08-29T21:24:29.526Z,26.94
2022-08-29T21:26:58.753Z,26.91
2022-08-29T21:29:27.271Z,26.94
2022-08-29T21:31:54.844Z,26.99
2022-08-29T21:34:23.787Z,27.14
2022-08-29T21:36:51.709Z,27.06
2022-08-29T21:39:28.390Z,27.07
2022-08-29T21:41:59.910Z,26.89
2022-08-29T21:44:31.593Z,26.88
2022-08-29T21:46:59.750Z,26.97
2022-08-29T21:49:27.860Z,26.94
2022-08-29T21:51:56.860Z,26.87
2022-08-29T21:54:24.711Z,26.61
2022-08-29T21:56:53.355Z,26.58
2022-08-29T21:59:21.926Z,26.58
2022-08-29T22:01:54.595Z,26.59
2022-08-29T22:04:28.193Z,26.65
2022-08-29T22:06:59.743Z,26.65
2022-08-29T22:09:28.368Z,26.59
2022-08-29T22:11:56.345Z,26.53
2022-08-29T22:14:44.120Z,26.64
2022-08-29T22:17:12.527Z,26.65
2022-08-29T22:19:40.743Z,26.65
2022-08-29T22:22:10.499Z,26.49
2022-08-29T22:24:38.443Z,26.50
2022-08-29T22:27:06.601Z,26.45
2022-08-29T22:29:34.636Z,26.41
2022-08-29T22:32:02.384Z,26.41
2022-08-29T22:34:30.598Z,26.29
2022-08-29T22:36:58.557Z,26.23
2022-08-29T22:39:26.099Z,26.22
2022-08-29T22:41:54.988Z,26.19
2022-08-29T22:45:02.102Z,26.29
2022-08-29T22:47:10.501Z,26.34
2022-08-29T22:49:38.965Z,26.38
2022-08-29T22:52:06.730Z,26.32
2022-08-29T22:54:40.186Z,26.33
2022-08-29T22:57:11.981Z,26.27
2022-08-29T22:59:41.632Z,26.27
2022-08-29T23:02:10.400Z,26.35
2022-08-29T23:04:39.024Z,26.24
2022-08-29T23:07:07.690Z,26.23
2022-08-29T23:09:36.097Z,26.16
2022-08-29T23:12:06.527Z,26.10
2022-08-29T23:14:37.353Z,26.09
2022-08-29T23:17:06.592Z,26.09
2022-08-29T23:19:35.763Z,26.08
2022-08-29T23:22:03.882Z,25.99
2022-08-29T23:24:32.862Z,26.06
2022-08-29T23:27:00.557Z,26.03
2022-08-29T23:29:31.020Z,26.07
2022-08-29T23:31:59.040Z,26.12
2022-08-29T23:34:27.695Z,26.07
2022-08-29T23:36:55.795Z,26.10
2022-08-29T23:39:23.828Z,26.14
2022-08-29T23:41:51.864Z,26.09
2022-08-29T23:44:19.887Z,26.04
2022-08-29T23:46:48.007Z,26.04
2022-08-29T23:49:15.904Z,26.00
2022-08-29T23:51:43.577Z,25.93
2022-08-29T23:54:11.134Z,25.89
2022-08-29T23:56:38.705Z,25.92
2022-08-29T23:59:06.257Z,25.94
